CDT,Max TemperatureF,Mean TemperatureF,Min TemperatureF,Max Dew PointF,MeanDew PointF,Min DewpointF,Max Humidity, Mean Humidity, Min Humidity, Max Sea Level PressureIn, Mean Sea Level PressureIn, Min Sea Level PressureIn, Max VisibilityMiles, Mean VisibilityMiles, Min VisibilityMiles, Max Wind SpeedMPH, Mean Wind SpeedMPH, Max Gust SpeedMPH,PrecipitationIn, CloudCover, Events, WindDirDegrees
2013-3-1,26,8,-11,1,-7,-18,73,51,22,30.47,30.42,30.36,10,10,10,7,1,,0.00,0,,5
2013-3-2,28,2,-23,-2,-17,-31,77,48,13,30.38,30.28,30.17,10,10,7,6,1,,0.00,0,,326
2013-3-3,39,15,-9,10,-4,-18,77,47,19,30.17,30.09,30.02,10,10,10,7,1,,0.00,3,,162
2013-3-4,35,16,-2,16,4,-15,73,54,38,30.15,30.09,30.04,10,10,10,8,1,,0.00,5,,119
2013-3-5,26,20,15,18,11,7,86,69,50,30.32,30.24,30.15,10,6,0,9,3,,0.06,8,Snow,21
2013-3-6,28,10,-7,16,5,-13,86,71,47,30.38,30.34,30.31,10,8,1,10,2,,0.00,6,Snow,335
2013-3-7,37,14,-9,16,3,-15,85,66,33,30.40,30.35,30.29,10,10,10,8,1,,0.00,1,,158
2013-3-8,28,17,6,23,17,3,93,81,68,30.32,30.23,30.13,10,8,5,8,2,,0.00,6,,180
2013-3-9,33,27,21,30,26,18,100,90,80,30.12,29.90,29.76,7,2,0,6,0,,0.72,7,Rain-Snow,325
2013-3-10,30,20,10,28,23,7,100,94,85,30.08,30.00,29.81,10,9,5,12,5,,0.00,7,Snow,338
2013-3-11,24,17,10,21,16,9,100,90,80,30.05,29.87,29.77,10,9,4,7,2,,0.00,8,Snow,358
2013-3-12,23,10,-2,16,7,-8,93,80,59,30.16,29.96,29.79,10,9,2,12,4,16,0.00,3,Snow,339
2013-3-13,33,8,-16,25,2,-20,92,75,59,30.30,30.24,30.16,10,10,10,7,1,,0.00,0,,343
2013-3-14,35,14,-7,34,13,-13,100,82,65,30.19,30.07,29.97,10,10,2,8,2,16,0.00,6,Snow,249
2013-3-15,26,17,8,23,6,-4,93,69,41,30.11,30.06,30.01,10,8,1,8,5,16,0.00,5,Snow,353
2013-3-16,17,2,-14,7,-5,-22,85,67,45,30.24,30.10,30.05,10,9,1,15,3,22,0.00,5,Snow,303
2013-3-17,26,0,-27,9,-13,-35,77,53,26,30.28,30.12,29.88,10,10,10,9,2,,0.00,3,,153
2013-3-18,28,22,17,25,19,9,93,85,68,29.87,29.58,29.46,10,2,0,10,3,21,0.39,8,Snow,144
2013-3-19,23,16,8,16,8,1,93,77,50,30.01,29.84,29.59,10,6,1,16,9,30,0.00,7,Snow,305
2013-3-20,19,11,3,5,3,0,92,70,49,30.11,30.07,30.01,10,7,2,13,6,21,0.00,8,Snow,318
2013-3-21,32,16,0,16,6,-8,85,66,44,30.11,30.07,30.04,10,10,7,8,2,,0.00,4,Snow,345
2013-3-22,39,15,-9,21,5,-15,85,69,45,30.11,30.08,30.04,10,10,10,7,1,,0.00,3,,315
2013-3-23,37,15,-7,25,9,-11,92,71,52,30.17,30.14,30.10,10,10,10,6,1,,0.00,4,,341
2013-3-24,32,20,6,19,14,1,86,70,55,30.15,30.12,30.09,10,10,10,7,1,,0.00,7,,13
2013-3-25,39,16,-7,21,8,-11,92,67,41,30.22,30.17,30.13,10,10,10,9,1,,0.00,2,,343
2013-3-26,44,32,21,27,19,14,86,64,34,30.28,30.25,30.22,10,10,10,6,1,,0.00,7,,5
2013-3-27,46,30,15,28,17,7,86,61,25,30.32,30.30,30.28,10,10,10,7,1,,0.00,5,,4
2013-3-28,50,26,3,23,10,0,92,59,22,30.34,30.29,30.24,10,10,10,6,0,,0.00,0,,5
2013-3-29,51,30,8,30,16,5,92,63,26,30.27,30.17,30.01,10,10,10,9,1,,0.00,1,,197
2013-3-30,51,38,24,37,21,10,93,59,23,30.01,29.84,29.75,10,10,7,12,2,20,0.00,2,,322
2013-3-31,33,26,19,23,14,3,86,58,40,30.03,29.83,29.69,10,9,1,21,8,30,0.00,7,Snow,320